429  
SXUS95 KTFX 180130  
MTTTFX  
 
AREA AWOS OBSERVATIONS  
NATIONAL WEATHER SERVICE GREAT FALLS MT  
730 PM MDT WED AUG 17 2022  
 
METAR KHRF 180130Z AUTO 36006KT 10SM CLR 29/11 A3006 RMK AO2 HAMILTON  
 
CLICK HERE TO GO TO PREVIOUS BULLETINS.

The Nexlab MT Page Main Text Page